createdAt,value
2022-09-20T03:08:20.034Z,928.23
2022-09-20T03:08:59.731Z,928.21
2022-09-20T03:11:35.964Z,928.19
2022-09-20T03:12:22.476Z,928.23
2022-09-20T03:13:22.469Z,928.24
2022-09-20T03:14:22.454Z,928.25
2022-09-20T03:15:23.368Z,928.19
2022-09-20T03:16:22.486Z,928.27
2022-09-20T11:29:01.858Z,929.22
2022-09-20T11:30:02.488Z,929.25
2022-09-20T11:31:02.425Z,929.27
2022-09-20T11:32:02.519Z,929.24
2022-09-20T11:33:02.420Z,929.25
2022-09-20T11:34:02.378Z,929.25
2022-09-20T11:35:02.360Z,929.26
2022-09-20T11:36:02.289Z,929.33
2022-09-20T11:37:02.298Z,929.33
2022-09-20T11:38:02.301Z,929.28
2022-09-20T11:39:02.283Z,929.32
2022-09-20T11:40:02.447Z,929.29
2022-09-20T11:41:02.280Z,929.33
2022-09-20T11:42:02.318Z,929.34
2022-09-20T11:43:02.242Z,929.27
2022-09-20T11:44:02.270Z,929.25
2022-09-20T11:45:02.250Z,929.27
2022-09-20T11:46:02.291Z,929.30
2022-09-20T11:47:02.252Z,929.30
2022-09-20T11:48:02.183Z,929.25
2022-09-20T11:49:02.186Z,929.28
2022-09-20T11:50:02.198Z,929.30
2022-09-20T11:51:02.989Z,929.26
2022-09-20T11:52:02.243Z,929.30
2022-09-20T11:53:02.167Z,929.31
2022-09-20T11:54:02.207Z,929.30
2022-09-20T11:55:02.140Z,929.27
2022-09-20T11:56:02.160Z,929.24
2022-09-20T11:57:02.143Z,929.17
2022-09-20T11:58:03.026Z,929.20
2022-09-20T11:59:02.133Z,929.16
2022-09-20T12:00:02.065Z,929.25
2022-09-20T12:01:04.132Z,929.21
2022-09-20T12:02:02.262Z,929.19
2022-09-20T12:03:02.145Z,929.23
2022-09-20T12:04:30.741Z,929.27
2022-09-20T12:05:02.075Z,929.24
2022-09-20T12:07:48.299Z,929.34
2022-09-20T12:08:50.202Z,929.36
2022-09-20T12:09:49.271Z,929.37
2022-09-20T12:10:49.224Z,929.34
2022-09-20T12:11:49.180Z,929.45
2022-09-20T12:12:49.219Z,929.45
2022-09-20T12:13:49.237Z,929.47
2022-09-20T12:14:49.175Z,929.50
2022-09-20T12:15:49.186Z,929.53
2022-09-20T12:16:49.244Z,929.51
2022-09-20T12:17:49.140Z,929.54
2022-09-20T12:18:49.905Z,929.56
2022-09-20T12:19:49.164Z,929.55
2022-09-20T12:20:50.612Z,929.55
2022-09-20T12:21:49.531Z,929.52
2022-09-20T12:22:49.085Z,929.51
2022-09-20T12:23:49.876Z,929.46
2022-09-20T12:24:49.070Z,929.45
2022-09-20T12:25:49.073Z,929.40
2022-09-20T12:26:49.102Z,929.39
2022-09-20T12:27:49.122Z,929.41
2022-09-20T12:28:49.081Z,929.36
2022-09-20T12:29:49.063Z,929.37
2022-09-20T12:30:49.021Z,929.38
2022-09-20T12:31:49.739Z,929.37
2022-09-20T12:32:48.975Z,929.36
2022-09-20T12:33:49.956Z,929.37
2022-09-20T12:34:49.672Z,929.34
2022-09-20T12:35:48.928Z,929.34
2022-09-20T12:36:49.706Z,929.36
2022-09-20T12:37:49.032Z,929.36
2022-09-20T12:38:48.932Z,929.42
2022-09-20T12:39:48.963Z,929.44
2022-09-20T12:40:48.901Z,929.39
2022-09-20T12:41:48.910Z,929.25
2022-09-20T12:42:48.971Z,929.31
2022-09-20T12:43:48.863Z,929.27
2022-09-20T12:44:48.852Z,929.22
2022-09-20T12:45:48.938Z,929.23
2022-09-20T12:46:48.798Z,929.21
2022-09-20T12:47:48.825Z,929.21
2022-09-20T12:48:48.836Z,929.14
2022-09-20T12:49:48.800Z,929.15
2022-09-20T12:50:48.757Z,929.13
2022-09-20T12:51:48.871Z,929.14
2022-09-20T12:52:48.755Z,929.11
2022-09-20T12:53:48.826Z,929.12
2022-09-20T12:54:48.787Z,929.02
2022-09-20T12:55:48.728Z,929.02
2022-09-20T12:56:48.712Z,928.96
2022-09-20T12:57:48.811Z,928.95
2022-09-20T12:58:48.738Z,928.98
2022-09-20T12:59:48.701Z,928.94
2022-09-20T13:00:48.742Z,929.02
2022-09-20T13:01:48.702Z,929.01
2022-09-20T13:02:50.152Z,929.06
2022-09-20T13:03:48.686Z,929.07
2022-09-20T13:04:48.680Z,929.05
2022-09-20T13:05:49.215Z,929.01
2022-09-20T13:06:50.588Z,929.06
2022-09-20T13:07:48.667Z,929.03
2022-09-20T13:08:49.403Z,929.06
2022-09-20T13:09:48.652Z,929.07
2022-09-20T13:10:48.615Z,929.03
2022-09-20T13:11:48.544Z,928.96
2022-09-20T13:12:53.872Z,929.03
2022-09-20T13:14:58.890Z,929.01
2022-09-20T13:15:59.872Z,928.98
2022-09-20T13:16:59.824Z,929.01
2022-09-20T13:17:59.803Z,929.04
2022-09-20T13:18:59.842Z,929.02
2022-09-20T13:19:59.848Z,929.00
2022-09-20T13:20:59.877Z,928.92
2022-09-20T13:21:59.779Z,929.00
2022-09-20T13:23:00.605Z,928.96
2022-09-20T13:23:59.795Z,928.94
2022-09-20T13:24:59.752Z,928.88
2022-09-20T13:25:59.734Z,928.89
2022-09-20T13:26:59.731Z,928.93
2022-09-20T13:27:59.693Z,928.91
2022-09-20T13:28:59.757Z,928.92
2022-09-20T13:29:59.696Z,928.95
2022-09-20T13:30:59.737Z,929.00
2022-09-20T13:31:59.702Z,928.96
2022-09-20T13:32:59.689Z,929.01
2022-09-20T13:33:59.691Z,928.99
2022-09-20T13:34:59.658Z,928.88
2022-09-20T13:35:59.628Z,928.88
2022-09-20T13:36:59.673Z,929.03
2022-09-20T13:37:59.834Z,928.94
2022-09-20T13:38:59.640Z,928.97
2022-09-20T13:39:59.658Z,928.97
2022-09-20T13:40:59.634Z,928.88
2022-09-20T13:41:59.613Z,928.91
2022-09-20T13:43:22.265Z,928.86
2022-09-20T13:43:59.568Z,928.86
2022-09-20T13:44:59.609Z,928.82
2022-09-20T13:45:59.600Z,928.77
2022-09-20T13:46:59.501Z,928.75
2022-09-20T13:47:59.534Z,928.77
2022-09-20T13:48:59.489Z,928.73
2022-09-20T13:49:59.539Z,928.77
2022-09-20T13:50:59.487Z,928.70
2022-09-20T13:51:59.504Z,928.71
2022-09-20T13:52:59.481Z,928.63
2022-09-20T13:53:59.450Z,928.65
2022-09-20T13:54:59.394Z,928.58
2022-09-20T13:55:59.461Z,928.63
2022-09-20T13:56:59.435Z,928.65
2022-09-20T13:57:59.408Z,928.60
2022-09-20T13:58:59.429Z,928.65
2022-09-20T13:59:59.387Z,928.67
2022-09-20T14:00:59.440Z,928.61
2022-09-20T14:01:59.343Z,928.60
2022-09-20T14:02:59.366Z,928.52
2022-09-20T14:03:59.335Z,928.48
2022-09-20T14:04:59.392Z,928.47
2022-09-20T14:05:59.336Z,928.48
2022-09-20T14:06:59.338Z,928.53
2022-09-20T14:07:59.308Z,928.50
2022-09-20T14:08:59.259Z,928.48
2022-09-20T14:09:59.313Z,928.43
2022-09-20T14:10:59.302Z,928.46
2022-09-20T14:11:59.248Z,928.43
2022-09-20T14:12:59.241Z,928.44
2022-09-20T14:13:59.265Z,928.40
2022-09-20T14:14:59.237Z,928.47
2022-09-20T14:15:59.252Z,928.47
2022-09-20T14:16:59.288Z,928.45
2022-09-20T14:17:59.185Z,928.44
2022-09-20T14:18:59.177Z,928.43
2022-09-20T14:19:59.209Z,928.44
2022-09-20T14:20:59.129Z,928.40
2022-09-20T14:21:59.118Z,928.42
2022-09-20T14:22:59.374Z,928.49
2022-09-20T14:23:59.108Z,928.48
2022-09-20T14:24:59.148Z,928.51
2022-09-20T14:25:59.148Z,928.42
2022-09-20T14:26:59.127Z,928.44
2022-09-20T14:27:59.147Z,928.41
2022-09-20T14:28:59.081Z,928.38
2022-09-20T14:29:59.093Z,928.39
2022-09-20T14:30:59.075Z,928.32
2022-09-20T14:31:59.126Z,928.30
2022-09-20T14:32:59.086Z,928.31
2022-09-20T14:33:59.028Z,928.31
2022-09-20T14:34:59.010Z,928.29
2022-09-20T14:35:59.033Z,928.31
2022-09-20T14:36:59.050Z,928.31
2022-09-20T14:37:58.981Z,928.30
2022-09-20T14:38:58.963Z,928.36
2022-09-20T14:39:59.045Z,928.38
2022-09-20T14:40:58.991Z,928.32
2022-09-20T14:41:58.967Z,928.26
2022-09-20T14:42:58.959Z,928.25
2022-09-20T14:43:59.177Z,928.29
2022-09-20T14:44:58.867Z,928.20
2022-09-20T14:45:58.985Z,928.17
2022-09-20T14:46:58.925Z,928.17
2022-09-20T14:47:58.885Z,928.15
2022-09-20T14:48:58.874Z,928.16
2022-09-20T14:49:58.831Z,928.12
2022-09-20T14:50:58.826Z,928.08
2022-09-20T14:51:59.528Z,928.02
2022-09-20T14:52:58.832Z,928.00
2022-09-20T14:53:58.829Z,927.93
2022-09-20T14:54:58.779Z,928.01
2022-09-20T14:55:58.814Z,928.00
2022-09-20T14:56:58.734Z,927.96
2022-09-20T14:57:58.775Z,927.92
2022-09-20T14:58:58.712Z,927.91
2022-09-20T14:59:58.730Z,927.90
2022-09-20T15:00:58.755Z,927.85
2022-09-20T15:01:58.744Z,927.86
2022-09-20T15:02:58.777Z,927.82
2022-09-20T15:03:58.688Z,927.82
2022-09-20T15:04:58.686Z,927.81
2022-09-20T15:05:58.740Z,927.75
2022-09-20T15:06:58.632Z,927.72
2022-09-20T15:07:58.653Z,927.76
2022-09-20T15:08:58.648Z,927.74
2022-09-20T15:09:58.598Z,927.77
2022-09-20T15:10:58.662Z,927.76
2022-09-20T15:11:58.593Z,927.72
2022-09-20T15:12:58.582Z,927.69
2022-09-20T15:13:58.560Z,927.63
2022-09-20T15:14:58.590Z,927.62
2022-09-20T15:15:58.538Z,927.61
2022-09-20T15:16:58.530Z,927.66
2022-09-20T15:17:58.497Z,927.65
2022-09-20T15:18:58.517Z,927.68
2022-09-20T15:19:58.616Z,927.56
2022-09-20T15:20:58.523Z,927.53
2022-09-20T15:21:59.272Z,927.55
2022-09-20T15:22:58.465Z,927.53
2022-09-20T15:23:58.487Z,927.47
2022-09-20T15:24:58.492Z,927.50
2022-09-20T15:25:58.529Z,927.54
2022-09-20T15:26:58.456Z,927.54
2022-09-20T15:27:58.406Z,927.49
2022-09-20T15:28:58.410Z,927.45
2022-09-20T15:29:58.465Z,927.46
2022-09-20T15:30:58.451Z,927.44
2022-09-20T15:31:58.379Z,927.41
2022-09-20T15:33:02.758Z,927.41
2022-09-20T15:33:58.331Z,927.38
2022-09-20T15:34:57.342Z,927.36
2022-09-20T15:35:58.385Z,927.35
2022-09-20T15:36:58.366Z,927.41
2022-09-20T15:37:58.329Z,927.35
2022-09-20T15:38:58.276Z,927.34
2022-09-20T15:39:58.456Z,927.36
2022-09-20T18:34:32.559Z,925.87
2022-09-20T18:35:33.717Z,925.85
2022-09-20T18:36:32.885Z,925.81
2022-09-20T18:37:32.948Z,925.80
2022-09-20T18:38:32.869Z,925.79
2022-09-20T18:39:33.147Z,925.81
2022-09-20T18:40:33.908Z,925.81
2022-09-20T18:41:32.854Z,925.81
2022-09-20T18:42:33.729Z,925.81
2022-09-20T18:43:33.064Z,925.83
2022-09-20T18:44:32.816Z,925.86
2022-09-20T19:28:28.381Z,926.37
2022-09-20T19:29:29.223Z,926.44
2022-09-20T19:30:29.256Z,926.34
2022-09-20T19:31:29.329Z,926.48
2022-09-20T19:32:29.161Z,926.39
2022-09-20T19:33:29.208Z,926.42
2022-09-20T19:34:29.134Z,926.38
2022-09-20T19:35:29.151Z,926.44
2022-09-20T19:36:29.156Z,926.45
2022-09-20T19:37:29.091Z,926.44
2022-09-20T19:40:18.101Z,926.51
2022-09-20T19:41:19.079Z,926.60
2022-09-20T19:42:19.026Z,926.50
2022-09-20T19:43:19.037Z,926.55
2022-09-20T19:44:19.043Z,926.54
2022-09-20T19:45:19.016Z,926.54
2022-09-20T19:46:19.056Z,926.57
2022-09-20T19:47:18.995Z,926.54
2022-09-20T19:48:18.908Z,926.58
2022-09-20T19:49:18.958Z,926.64
2022-09-20T19:50:18.936Z,926.59
2022-09-20T19:51:18.914Z,926.58
2022-09-20T19:52:18.970Z,926.58
2022-09-20T19:53:18.872Z,926.63
2022-09-20T19:54:18.864Z,926.59
2022-09-20T19:55:18.862Z,926.65
2022-09-20T19:56:18.899Z,926.62
2022-09-20T19:57:18.851Z,926.72
2022-09-20T19:58:18.876Z,926.68
2022-09-20T19:59:18.831Z,926.69
2022-09-20T20:00:18.824Z,926.68
2022-09-20T20:01:18.826Z,926.67
2022-09-20T20:02:18.818Z,926.68
2022-09-20T20:03:18.796Z,926.65
2022-09-20T20:04:18.749Z,926.60
2022-09-20T20:05:18.766Z,926.59
2022-09-20T20:06:18.762Z,926.60
2022-09-20T20:07:18.790Z,926.61
2022-09-20T20:08:18.732Z,926.62
2022-09-20T20:09:19.265Z,926.58
2022-09-20T20:10:18.685Z,926.58
2022-09-20T20:11:18.672Z,926.59
2022-09-20T20:12:23.754Z,926.58
2022-09-20T20:13:18.715Z,926.60
2022-09-20T20:14:18.688Z,926.64
2022-09-20T20:15:18.616Z,926.64
2022-09-20T20:16:18.661Z,926.65
2022-09-20T20:17:18.610Z,926.67
2022-09-20T20:18:18.648Z,926.69
2022-09-20T20:19:18.620Z,926.69
2022-09-20T20:20:21.770Z,926.73
2022-09-20T20:21:19.238Z,926.75
2022-09-20T20:22:18.598Z,926.76
2022-09-20T20:23:18.603Z,926.73
2022-09-20T20:24:18.567Z,926.73
2022-09-20T20:25:18.519Z,926.78
2022-09-20T20:26:18.599Z,926.80
2022-09-20T20:27:18.522Z,926.86
2022-09-20T20:28:18.542Z,926.88
2022-09-20T20:29:18.505Z,926.86
2022-09-20T20:30:18.459Z,926.87
2022-09-20T20:31:18.484Z,926.83
2022-09-20T20:32:18.537Z,926.86
2022-09-20T20:33:18.462Z,926.90
2022-09-20T20:34:18.419Z,926.91
2022-09-20T20:35:18.455Z,926.97
2022-09-20T20:36:18.396Z,926.96
2022-09-20T20:37:18.414Z,927.00
2022-09-20T20:38:18.721Z,927.02
2022-09-20T20:39:18.389Z,927.04
2022-09-20T20:40:18.466Z,927.05
2022-09-20T20:41:18.413Z,927.08
2022-09-20T20:42:18.383Z,927.08
2022-09-20T20:43:18.358Z,927.12
2022-09-20T20:44:18.346Z,927.08
2022-09-20T20:45:18.365Z,927.15
2022-09-20T20:46:18.379Z,927.18
2022-09-20T20:47:18.314Z,927.18
2022-09-20T20:48:18.305Z,927.17
2022-09-20T20:49:18.232Z,927.19
2022-09-20T20:50:18.331Z,927.20
2022-09-20T20:51:18.226Z,927.24
2022-09-20T20:52:18.229Z,927.29
2022-09-20T20:53:18.242Z,927.31
2022-09-20T20:54:18.224Z,927.29
2022-09-20T20:55:18.236Z,927.32
2022-09-20T20:56:18.812Z,927.32
2022-09-20T20:57:18.226Z,927.37
2022-09-20T20:58:18.173Z,927.41
2022-09-20T20:59:18.201Z,927.40
2022-09-20T21:00:18.188Z,927.45
2022-09-20T21:01:18.182Z,927.48
2022-09-20T21:02:18.212Z,927.51
2022-09-20T21:03:18.125Z,927.56
2022-09-20T21:04:18.124Z,927.54
2022-09-20T21:05:18.126Z,927.55
2022-09-20T21:06:18.074Z,927.53
2022-09-20T21:07:18.076Z,927.58
2022-09-20T21:08:18.119Z,927.57
2022-09-20T21:09:18.090Z,927.62
2022-09-20T21:10:18.031Z,927.60
2022-09-20T21:11:18.025Z,927.75
2022-09-20T21:12:18.021Z,927.62
2022-09-20T21:13:18.043Z,927.59
2022-09-20T21:14:18.012Z,927.64
2022-09-20T21:15:18.009Z,927.65
2022-09-20T21:16:17.944Z,927.66
2022-09-20T21:17:17.931Z,927.62
2022-09-20T21:18:17.941Z,927.69
2022-09-20T21:19:18.699Z,927.72
2022-09-20T21:20:17.946Z,927.79
2022-09-20T21:21:17.883Z,927.80
2022-09-20T21:22:17.899Z,927.77
2022-09-20T21:23:17.922Z,927.78
2022-09-20T21:24:17.904Z,927.78
2022-09-20T21:25:17.896Z,927.76
2022-09-20T21:26:17.867Z,927.82
2022-09-20T21:27:17.800Z,927.80
2022-09-20T21:28:17.863Z,927.81
2022-09-20T21:29:17.862Z,927.84
2022-09-20T21:30:17.804Z,927.83
2022-09-20T21:31:17.887Z,927.89
2022-09-20T21:32:17.788Z,927.97
2022-09-20T21:33:17.809Z,927.94
2022-09-20T21:34:17.772Z,927.91
2022-09-20T21:35:17.782Z,927.96
2022-09-20T21:36:17.733Z,927.99
2022-09-20T21:37:17.700Z,927.99
2022-09-20T21:38:17.813Z,927.98
2022-09-20T21:39:17.749Z,928.04
2022-09-20T21:40:17.798Z,928.05
2022-09-20T23:07:31.767Z,928.98
2022-09-20T23:58:59.953Z,929.54
